createdAt,value
2019-04-14T00:00:22.970Z,99.9939
2019-04-14T00:01:26.093Z,99.9939
2019-04-14T00:02:29.272Z,99.9939
2019-04-14T00:03:32.312Z,99.9939
2019-04-14T00:04:35.470Z,99.9939
2019-04-14T00:05:38.639Z,99.9939
2019-04-14T00:06:40.484Z,99.9939
2019-04-14T00:07:42.748Z,99.9939
2019-04-14T00:08:45.747Z,99.9939
2019-04-14T00:09:47.893Z,99.9939
2019-04-14T00:10:50.786Z,99.9939
2019-04-14T00:11:52.773Z,99.9939
2019-04-14T00:12:55.663Z,99.9939
2019-04-14T00:13:56.909Z,99.9939
2019-04-14T00:14:59.833Z,99.9939
2019-04-14T00:16:01.727Z,99.9939
2019-04-14T00:17:04.172Z,99.9939
2019-04-14T00:18:05.514Z,99.9939
2019-04-14T00:19:07.021Z,99.9939
2019-04-14T00:20:09.573Z,99.9939
2019-04-14T00:21:11.416Z,99.9939
2019-04-14T00:22:14.076Z,99.9939
2019-04-14T00:23:15.913Z,99.9939
2019-04-14T00:24:18.424Z,99.9939
2019-04-14T00:25:19.692Z,99.9939
2019-04-14T00:26:20.489Z,99.9939
2019-04-14T00:27:21.736Z,99.9939
2019-04-14T00:28:23.106Z,99.9939
2019-04-14T00:29:24.817Z,99.9939
2019-04-14T00:30:27.333Z,99.9939
2019-04-14T00:31:30.563Z,99.9939
2019-04-14T00:32:33.396Z,99.9939
2019-04-14T00:33:35.294Z,99.9939
2019-04-14T00:34:37.604Z,99.9939
2019-04-14T00:35:40.658Z,99.9939
2019-04-14T00:36:43.686Z,99.9939
2019-04-14T00:37:45.000Z,99.9939
2019-04-14T00:38:47.818Z,99.9939
2019-04-14T00:39:49.764Z,99.9939
2019-04-14T00:40:51.828Z,99.9939
2019-04-14T00:41:58.220Z,99.9939
2019-04-14T00:43:00.588Z,99.9939
2019-04-14T00:44:03.555Z,99.9939
2019-04-14T00:45:05.475Z,99.9939
2019-04-14T00:46:07.995Z,99.9939
2019-04-14T00:47:09.808Z,99.9939
2019-04-14T00:48:15.807Z,99.9939
2019-04-14T00:49:17.990Z,99.9939
2019-04-14T00:50:21.114Z,99.9939
2019-04-14T00:51:23.003Z,99.9939
2019-04-14T00:52:25.425Z,99.9939
2019-04-14T00:53:27.444Z,99.9939
2019-04-14T00:54:30.433Z,99.9939
2019-04-14T00:55:33.516Z,99.9939
2019-04-14T00:56:35.410Z,99.9939
2019-04-14T00:57:37.643Z,99.9939
2019-04-14T00:58:39.029Z,99.9939
2019-04-14T00:59:41.881Z,99.9939
2019-04-14T01:00:45.047Z,99.9939
2019-04-14T01:01:46.311Z,99.9939
2019-04-14T01:02:48.016Z,99.9939
2019-04-14T01:03:50.517Z,99.9939
2019-04-14T01:04:51.782Z,99.9939
2019-04-14T01:05:52.970Z,99.9939
2019-04-14T01:06:55.486Z,99.9939
2019-04-14T01:07:57.318Z,99.9939
2019-04-14T01:08:58.499Z,99.9939
2019-04-14T01:09:59.737Z,99.9939
2019-04-14T01:11:01.134Z,99.9939
2019-04-14T01:12:02.338Z,99.9939
2019-04-14T01:13:05.831Z,99.9939
2019-04-14T01:14:10.435Z,99.9939
2019-04-14T01:15:13.692Z,99.9939
2019-04-14T01:16:18.804Z,99.9939
2019-04-14T01:17:22.023Z,99.9939
2019-04-14T01:18:23.349Z,99.9939
2019-04-14T01:19:25.159Z,99.9939
2019-04-14T01:20:27.499Z,99.9939
2019-04-14T01:21:30.621Z,99.9939
2019-04-14T01:22:31.952Z,99.9939
2019-04-14T01:23:34.784Z,99.9939
2019-04-14T01:24:36.679Z,99.9939
2019-04-14T01:25:38.863Z,99.9939
2019-04-14T01:26:41.993Z,99.9939
2019-04-14T01:27:44.943Z,99.9939
2019-04-14T01:28:46.295Z,99.9939
2019-04-14T01:29:49.440Z,99.9939
2019-04-14T01:30:52.289Z,99.9939
2019-04-14T01:31:54.238Z,99.9939
2019-04-14T01:32:56.438Z,99.9939
2019-04-14T01:33:57.712Z,99.9939
2019-04-14T01:34:59.474Z,99.9939
2019-04-14T01:36:01.727Z,99.9939
2019-04-14T01:37:05.040Z,99.9939
2019-04-14T01:38:07.890Z,99.9939
2019-04-14T01:39:09.234Z,99.9939
2019-04-14T01:40:12.045Z,99.9939
2019-04-14T01:41:15.012Z,99.9939
2019-04-14T01:42:16.275Z,99.9939
2019-04-14T01:43:18.846Z,99.9939
2019-04-14T01:44:22.000Z,99.9939
2019-04-14T01:45:25.239Z,99.9939
2019-04-14T01:46:29.992Z,99.9939
2019-04-14T01:47:33.439Z,99.9939
2019-04-14T01:48:35.292Z,99.9939
2019-04-14T01:49:37.554Z,99.9939
2019-04-14T01:50:39.522Z,99.9939
2019-04-14T01:51:41.749Z,99.9939
2019-04-14T01:52:43.718Z,99.9939
2019-04-14T01:53:44.648Z,99.9939
2019-04-14T01:54:47.331Z,99.9939
2019-04-14T01:55:50.445Z,99.9939
2019-04-14T01:56:53.617Z,99.9939
2019-04-14T01:57:54.919Z,99.9939
2019-04-14T01:58:56.114Z,99.9939
2019-04-14T01:59:57.303Z,99.9939
2019-04-14T02:00:59.627Z,99.9939
2019-04-14T02:02:00.896Z,99.9939
2019-04-14T02:03:02.597Z,99.9939
2019-04-14T02:04:04.976Z,99.9939
2019-04-14T02:05:08.162Z,99.9939
2019-04-14T02:06:09.339Z,99.9939
2019-04-14T02:07:10.704Z,99.9939
2019-04-14T02:08:13.425Z,99.9939
2019-04-14T02:09:16.213Z,99.9939
2019-04-14T02:10:17.452Z,99.9939
2019-04-14T02:11:20.448Z,99.9939
2019-04-14T02:12:23.515Z,99.9939
2019-04-14T02:13:26.722Z,99.9939
2019-04-14T02:14:30.025Z,99.9939
2019-04-14T02:15:33.054Z,99.9939
2019-04-14T02:16:41.966Z,99.9939
2019-04-14T02:17:41.664Z,99.9939
2019-04-14T02:18:44.791Z,99.9939
2019-04-14T02:19:46.132Z,99.9939
2019-04-14T02:20:49.080Z,99.9939
2019-04-14T02:21:52.025Z,99.9939
2019-04-14T02:22:53.295Z,99.9939
2019-04-14T02:23:56.134Z,99.9939
2019-04-14T02:24:59.168Z,99.9939
2019-04-14T02:26:02.277Z,99.9939
2019-04-14T02:27:03.563Z,99.9939
2019-04-14T02:28:04.877Z,99.9939
2019-04-14T02:29:07.803Z,99.9939
2019-04-14T02:30:14.579Z,99.9939
2019-04-14T02:31:39.197Z,99.9939
2019-04-14T02:32:49.548Z,99.9939
2019-04-14T02:33:54.038Z,99.9939
2019-04-14T02:35:02.732Z,99.9939
2019-04-14T02:36:14.228Z,99.9939
2019-04-14T02:37:30.135Z,99.9939
2019-04-14T02:38:34.241Z,99.9939
2019-04-14T02:39:36.406Z,99.9939
2019-04-14T02:40:36.311Z,99.9939
2019-04-14T02:42:54.278Z,99.9939
2019-04-14T02:43:58.437Z,99.9939
2019-04-14T02:46:05.869Z,99.9939
2019-04-14T02:47:27.394Z,99.9939
2019-04-14T02:48:27.530Z,99.9939
2019-04-14T02:49:29.499Z,99.9939
2019-04-14T02:50:28.555Z,99.9939
2019-04-14T02:51:33.650Z,99.9939
2019-04-14T02:52:47.301Z,99.9939
2019-04-14T02:53:50.113Z,99.9939
2019-04-14T02:54:59.983Z,99.9939
2019-04-14T02:56:08.255Z,99.9939
2019-04-14T02:57:12.783Z,99.9939
2019-04-14T02:58:23.872Z,99.9939
2019-04-14T02:59:39.113Z,99.9939
2019-04-14T03:01:35.011Z,99.9939
2019-04-14T03:03:43.571Z,99.9939
2019-04-14T03:04:50.755Z,99.9939
2019-04-14T03:05:57.977Z,99.9939
2019-04-14T03:07:08.052Z,99.9939
2019-04-14T03:08:11.471Z,99.9939
2019-04-14T03:09:24.727Z,99.9939
2019-04-14T03:11:32.682Z,99.9939
2019-04-14T03:12:31.538Z,99.9939
2019-04-14T03:14:49.610Z,99.9939
2019-04-14T03:18:24.151Z,99.9939
2019-04-14T03:19:06.496Z,99.9939
2019-04-14T03:20:20.497Z,99.9939
2019-04-14T03:21:52.759Z,99.9939
2019-04-14T03:22:48.011Z,99.9939
2019-04-14T03:23:48.609Z,99.9939
2019-04-14T03:24:35.942Z,99.9939
2019-04-14T03:25:41.063Z,99.9939
2019-04-14T03:26:54.660Z,99.9939
2019-04-14T03:27:58.492Z,99.9939
2019-04-14T03:29:08.220Z,99.9939
2019-04-14T03:30:34.020Z,99.9939
2019-04-14T03:34:39.205Z,99.9939
2019-04-14T03:37:18.540Z,99.9939
2019-04-14T03:38:05.366Z,99.9939
2019-04-14T03:39:05.782Z,99.9939
2019-04-14T03:40:10.112Z,99.9939
2019-04-14T03:42:28.695Z,99.9939
2019-04-14T03:43:33.821Z,99.9939
2019-04-14T03:44:34.711Z,99.9939
2019-04-14T03:45:56.962Z,99.9939
2019-04-14T03:46:50.716Z,99.9939
2019-04-14T03:48:22.411Z,99.9939
2019-04-14T03:50:06.046Z,99.9939
2019-04-14T03:51:22.755Z,99.9939
2019-04-14T03:52:29.823Z,99.9939
2019-04-14T03:53:37.659Z,99.9939
2019-04-14T03:54:28.908Z,99.9939
2019-04-14T03:55:25.024Z,99.9939
2019-04-14T03:56:19.682Z,99.9939
2019-04-14T03:57:23.637Z,99.9939
2019-04-14T03:58:25.557Z,99.9939
2019-04-14T03:59:28.216Z,99.9939
2019-04-14T04:00:29.477Z,99.9939
2019-04-14T04:01:32.335Z,99.9939
2019-04-14T04:02:34.176Z,99.9939
2019-04-14T04:03:35.028Z,99.9939
2019-04-14T04:04:37.948Z,99.9939
2019-04-14T04:05:39.253Z,99.9939
2019-04-14T04:06:42.092Z,99.9939
2019-04-14T04:07:45.299Z,99.9939
2019-04-14T04:08:47.158Z,99.9939
2019-04-14T04:09:49.693Z,99.9939
2019-04-14T04:10:51.120Z,99.9939
2019-04-14T04:11:52.333Z,99.9939
2019-04-14T04:12:53.521Z,99.9939
2019-04-14T04:13:54.705Z,99.9939
2019-04-14T04:14:55.901Z,99.9939
2019-04-14T04:15:58.310Z,99.9939
2019-04-14T04:16:59.597Z,99.9939
2019-04-14T04:18:00.787Z,99.9939
2019-04-14T04:19:08.253Z,99.9939
2019-04-14T04:20:08.977Z,99.9939
2019-04-14T04:21:10.272Z,99.9939
2019-04-14T04:22:12.670Z,99.9939
2019-04-14T04:23:14.231Z,99.9939
2019-04-14T04:24:15.115Z,99.9939
2019-04-14T04:25:16.310Z,99.9939
2019-04-14T04:26:19.087Z,99.9939
2019-04-14T04:27:22.113Z,99.9939
2019-04-14T04:28:23.470Z,99.9939
2019-04-14T04:29:25.269Z,99.9939
2019-04-14T04:30:27.630Z,99.9939
2019-04-14T04:31:28.851Z,99.9939
2019-04-14T04:32:31.858Z,99.9939
2019-04-14T04:33:34.789Z,99.9939
2019-04-14T04:34:36.596Z,99.9939
2019-04-14T04:35:37.950Z,99.9939
2019-04-14T04:36:39.867Z,99.9939
2019-04-14T04:37:41.731Z,99.9939
2019-04-14T04:38:44.264Z,99.9939
2019-04-14T04:39:47.513Z,99.9939
2019-04-14T04:40:50.672Z,99.9939
2019-04-14T04:41:51.963Z,99.9939
2019-04-14T04:42:54.775Z,99.9939
2019-04-14T04:43:56.680Z,99.9939
2019-04-14T04:44:58.101Z,99.9939
2019-04-14T04:46:00.503Z,99.9939
2019-04-14T04:47:03.483Z,99.9939
2019-04-14T04:48:06.582Z,99.9939
2019-04-14T04:49:14.482Z,99.9939
2019-04-14T04:50:15.048Z,99.9939
2019-04-14T04:51:16.274Z,99.9939
2019-04-14T04:52:17.470Z,99.9939
2019-04-14T04:53:18.665Z,99.9939
2019-04-14T04:54:21.073Z,99.9939
2019-04-14T04:55:24.099Z,99.9939
2019-04-14T04:56:25.501Z,99.9939
2019-04-14T04:57:28.439Z,99.9939
2019-04-14T04:58:30.529Z,99.9939
2019-04-14T04:59:32.326Z,99.9939
2019-04-14T05:00:35.290Z,99.9939
2019-04-14T05:01:37.204Z,99.9939
2019-04-14T05:02:39.366Z,99.9939
2019-04-14T05:03:41.303Z,99.9939
2019-04-14T05:04:43.845Z,99.9939
2019-04-14T05:05:45.116Z,99.9939
2019-04-14T05:06:46.890Z,99.9939
2019-04-14T05:07:49.053Z,99.9939
2019-04-14T05:08:50.836Z,99.9939
2019-04-14T05:09:53.463Z,99.9939
2019-04-14T05:10:55.416Z,99.9939
2019-04-14T05:11:57.803Z,99.9939
2019-04-14T05:12:59.048Z,99.9939
2019-04-14T05:14:00.754Z,99.9939
2019-04-14T05:15:03.638Z,99.9939
2019-04-14T05:16:06.239Z,99.9939
2019-04-14T05:17:08.168Z,99.9939
2019-04-14T05:18:09.887Z,99.9939
2019-04-14T05:19:20.454Z,99.9939
2019-04-14T05:20:18.122Z,99.9939
2019-04-14T05:21:19.874Z,99.9939
2019-04-14T05:22:22.382Z,99.9939
2019-04-14T05:23:23.650Z,99.9939
2019-04-14T05:24:26.869Z,99.9939
2019-04-14T05:25:29.632Z,99.9939
2019-04-14T05:26:30.962Z,99.9939
2019-04-14T05:27:34.058Z,99.9939
2019-04-14T05:28:35.928Z,99.9939
2019-04-14T05:29:38.622Z,99.9939
2019-04-14T05:30:39.873Z,99.9939
2019-04-14T05:31:41.059Z,99.9939
2019-04-14T05:32:43.461Z,99.9939
2019-04-14T05:33:44.854Z,99.9939
2019-04-14T05:34:46.523Z,99.9939
2019-04-14T05:35:48.888Z,99.9939
2019-04-14T05:36:50.258Z,99.9939
2019-04-14T05:37:51.438Z,99.9939
2019-04-14T05:38:53.966Z,99.9939
2019-04-14T05:39:55.295Z,99.9939
2019-04-14T05:40:56.645Z,99.9939
2019-04-14T05:42:07.539Z,99.9939
2019-04-14T05:43:04.727Z,99.9939
2019-04-14T05:44:07.823Z,99.9939
2019-04-14T05:45:09.270Z,99.9939
2019-04-14T05:46:11.977Z,99.9939
2019-04-14T05:47:13.184Z,99.9939
2019-04-14T05:48:14.430Z,99.9939
2019-04-14T05:49:29.570Z,99.9939
2019-04-14T05:50:22.722Z,99.9939
2019-04-14T05:51:24.871Z,99.9939
2019-04-14T05:52:27.362Z,99.9939
2019-04-14T05:53:30.439Z,99.9939
2019-04-14T05:54:32.287Z,99.9939
2019-04-14T05:55:33.622Z,99.9939
2019-04-14T05:56:37.546Z,99.9939
2019-04-14T05:57:39.835Z,99.9939
2019-04-14T05:58:41.114Z,99.9939
2019-04-14T05:59:43.968Z,99.9939
2019-04-14T06:00:46.346Z,99.9939
2019-04-14T06:01:48.821Z,99.9939
2019-04-14T06:02:50.777Z,99.9939
2019-04-14T06:03:52.545Z,99.9939
2019-04-14T06:04:54.992Z,99.9939
2019-04-14T06:05:56.756Z,99.9939
2019-04-14T06:06:58.071Z,99.9939
2019-04-14T06:07:59.504Z,99.9939
2019-04-14T06:09:01.204Z,99.9939
2019-04-14T06:10:02.995Z,99.9939
2019-04-14T06:11:04.789Z,99.9939
2019-04-14T06:12:05.994Z,99.9939
2019-04-14T06:13:07.734Z,99.9939
2019-04-14T06:14:09.706Z,99.9939
2019-04-14T06:15:11.076Z,99.9939
2019-04-14T06:16:12.274Z,99.9939
2019-04-14T06:17:13.480Z,99.9939
2019-04-14T06:18:14.699Z,99.9939
2019-04-14T06:19:15.890Z,99.9939
2019-04-14T06:20:17.124Z,99.9939
2019-04-14T06:21:18.309Z,99.9939
2019-04-14T06:22:19.519Z,99.9939
2019-04-14T06:23:20.733Z,99.9939
2019-04-14T06:24:22.475Z,99.9939
2019-04-14T06:25:24.582Z,99.9939
2019-04-14T06:26:26.467Z,99.9939
2019-04-14T06:27:28.436Z,99.9939
2019-04-14T06:28:30.347Z,99.9939
2019-04-14T06:29:32.241Z,99.9939
2019-04-14T06:30:33.490Z,99.9939
2019-04-14T06:31:35.290Z,99.9939
2019-04-14T06:32:37.067Z,99.9939
2019-04-14T06:33:38.805Z,99.9939
2019-04-14T06:34:40.034Z,99.9548
2019-04-14T06:35:41.726Z,99.9939
2019-04-14T06:36:43.496Z,99.9939
2019-04-14T06:37:45.466Z,99.9939
2019-04-14T06:38:45.613Z,99.9939
2019-04-14T06:39:46.762Z,99.9939
2019-04-14T06:40:48.615Z,99.9939
2019-04-14T06:41:49.908Z,99.9377
2019-04-14T06:42:51.651Z,99.8360
2019-04-14T06:43:52.830Z,99.6401
2019-04-14T06:44:54.761Z,99.4685
2019-04-14T06:45:54.960Z,99.5291
2019-04-14T06:46:56.847Z,99.5298
2019-04-14T06:47:58.716Z,99.4443
2019-04-14T06:48:59.905Z,99.3587
2019-04-14T06:50:01.818Z,99.3225
2019-04-14T06:51:03.677Z,99.2875
2019-04-14T06:52:05.490Z,99.3337
2019-04-14T06:53:07.302Z,99.4263
2019-04-14T06:54:08.902Z,99.4882
2019-04-14T06:55:10.894Z,99.3749
2019-04-14T06:56:12.141Z,99.3940
2019-04-14T06:57:13.332Z,99.2194
2019-04-14T06:58:14.966Z,99.2852
2019-04-14T06:59:16.187Z,99.3379
2019-04-14T07:00:17.961Z,99.1426
2019-04-14T07:01:20.038Z,98.7998
2019-04-14T07:02:21.711Z,98.6586
2019-04-14T07:03:23.098Z,98.9361
2019-04-14T07:04:24.982Z,98.9022
2019-04-14T07:05:26.863Z,99.0102
2019-04-14T07:06:28.257Z,98.9757
2019-04-14T07:07:29.954Z,98.7168
2019-04-14T07:08:31.961Z,98.8146
2019-04-14T07:09:33.182Z,98.4726
2019-04-14T07:10:35.163Z,98.4386
2019-04-14T07:11:36.978Z,98.5411
2019-04-14T07:12:38.736Z,98.6098
2019-04-14T07:13:40.435Z,98.7384
2019-04-14T07:14:42.296Z,98.7262
2019-04-14T07:15:44.205Z,98.5855
2019-04-14T07:16:45.430Z,98.6872
2019-04-14T07:17:46.625Z,98.7455
2019-04-14T07:18:47.881Z,98.7818
2019-04-14T07:20:01.031Z,98.7997
2019-04-14T07:20:55.723Z,98.4903
2019-04-14T07:21:57.495Z,98.3637
2019-04-14T07:22:58.671Z,97.7928
2019-04-14T07:24:00.491Z,97.3195
2019-04-14T07:25:02.385Z,97.2375
2019-04-14T07:26:04.210Z,97.2671
2019-04-14T07:27:05.949Z,97.2960
2019-04-14T07:28:07.715Z,97.1249
2019-04-14T07:29:09.512Z,97.2844
2019-04-14T07:30:10.693Z,97.2804
2019-04-14T07:31:12.509Z,97.2864
2019-04-14T07:32:14.678Z,97.2467
2019-04-14T07:33:16.546Z,97.2529
2019-04-14T07:34:18.433Z,97.2061
2019-04-14T07:35:20.315Z,97.1436
2019-04-14T07:36:22.062Z,97.2539
2019-04-14T07:37:24.173Z,97.3800
2019-04-14T07:38:26.111Z,97.2102
2019-04-14T07:39:27.923Z,97.3346
2019-04-14T07:40:30.122Z,97.2580
2019-04-14T07:41:31.869Z,97.3789
2019-04-14T07:42:33.075Z,97.3558
2019-04-14T07:43:34.891Z,97.1980
2019-04-14T07:44:36.696Z,97.4454
2019-04-14T07:45:37.487Z,97.4852
2019-04-14T07:46:38.685Z,97.4990
2019-04-14T07:47:40.960Z,97.6973
2019-04-14T07:48:41.884Z,97.8903
2019-04-14T07:49:43.824Z,97.9517
2019-04-14T07:50:45.711Z,98.1231
2019-04-14T07:51:47.550Z,98.1080
2019-04-14T07:52:48.877Z,98.1043
2019-04-14T07:53:50.730Z,98.2473
2019-04-14T07:54:52.664Z,98.4062
2019-04-14T07:55:53.860Z,98.7110
2019-04-14T07:56:55.049Z,98.6572
2019-04-14T07:57:56.244Z,98.7525
2019-04-14T07:58:57.433Z,98.7368
2019-04-14T07:59:58.890Z,98.6083
2019-04-14T08:01:00.739Z,98.5113
2019-04-14T08:02:02.652Z,98.2376
2019-04-14T08:03:03.849Z,98.1594
2019-04-14T08:04:05.581Z,98.0065
2019-04-14T08:05:07.564Z,97.9753
2019-04-14T08:06:08.769Z,98.2669
2019-04-14T08:07:10.590Z,98.4923
2019-04-14T08:08:12.662Z,98.5921
2019-04-14T08:09:14.101Z,98.7399
2019-04-14T08:10:15.936Z,98.9843
2019-04-14T08:11:17.756Z,99.1981
2019-04-14T08:12:19.683Z,99.2621
2019-04-14T08:13:21.816Z,99.3613
2019-04-14T08:14:23.698Z,99.3657
2019-04-14T08:15:25.655Z,99.4127
2019-04-14T08:16:27.389Z,99.5646
2019-04-14T08:17:28.887Z,99.5724
2019-04-14T08:18:31.100Z,99.6608
2019-04-14T08:19:32.924Z,99.6342
2019-04-14T08:20:34.838Z,99.5954
2019-04-14T08:21:36.750Z,99.5635
2019-04-14T08:22:38.484Z,99.7210
2019-04-14T08:23:40.617Z,99.6369
2019-04-14T08:24:41.817Z,99.2596
2019-04-14T08:25:43.372Z,99.2194
2019-04-14T08:26:45.171Z,99.2661
2019-04-14T08:27:46.992Z,99.2541
2019-04-14T08:28:48.198Z,99.2054
2019-04-14T08:29:50.037Z,99.1739
2019-04-14T08:30:51.334Z,99.1724
2019-04-14T08:31:53.106Z,99.2186
2019-04-14T08:32:55.047Z,99.2221
2019-04-14T08:33:55.946Z,99.3035
2019-04-14T08:34:57.741Z,99.3223
2019-04-14T08:35:59.135Z,99.2033
2019-04-14T08:37:00.354Z,99.1890
2019-04-14T08:38:01.548Z,99.0494
2019-04-14T08:39:02.741Z,98.9878
2019-04-14T08:40:03.948Z,99.0060
2019-04-14T08:41:05.933Z,99.1395
2019-04-14T08:42:07.139Z,99.2186
2019-04-14T08:43:09.036Z,99.2184
2019-04-14T08:44:11.189Z,99.0582
2019-04-14T08:45:13.008Z,99.1022
2019-04-14T08:46:14.830Z,99.1082
2019-04-14T08:47:16.037Z,99.0068
2019-04-14T08:48:17.221Z,98.9121
2019-04-14T08:49:19.305Z,98.7337
2019-04-14T08:50:21.584Z,98.5502
2019-04-14T08:51:22.470Z,98.6247
2019-04-14T08:52:24.440Z,98.5901
2019-04-14T08:53:26.411Z,98.5657
2019-04-14T08:54:28.260Z,98.6145
2019-04-14T08:55:30.178Z,98.5651
2019-04-14T08:56:32.217Z,98.5586
2019-04-14T08:57:34.058Z,98.3015
2019-04-14T08:58:35.238Z,98.1697
2019-04-14T08:59:37.227Z,98.2453
2019-04-14T09:00:39.028Z,98.1492
2019-04-14T09:01:40.160Z,97.8831
2019-04-14T09:02:42.120Z,97.7404
2019-04-14T09:03:44.191Z,97.8174
2019-04-14T09:04:45.408Z,97.8051
2019-04-14T09:05:47.188Z,97.7176
2019-04-14T09:06:49.010Z,97.5681
2019-04-14T09:07:51.158Z,97.4863
2019-04-14T09:08:53.376Z,97.4618
2019-04-14T09:09:55.507Z,97.3269
2019-04-14T09:10:57.554Z,97.0901
2019-04-14T09:11:59.365Z,96.9095
2019-04-14T09:13:01.167Z,96.5742
2019-04-14T09:14:02.878Z,96.4212
2019-04-14T09:15:04.068Z,96.6408
2019-04-14T09:16:05.788Z,96.7895
2019-04-14T09:17:06.951Z,96.5466
2019-04-14T09:18:08.137Z,96.2174
2019-04-14T09:19:09.808Z,96.1601
2019-04-14T09:20:11.842Z,96.2390
2019-04-14T09:21:13.779Z,96.4596
2019-04-14T09:22:15.681Z,96.8833
2019-04-14T09:23:17.512Z,96.9415
2019-04-14T09:24:18.682Z,96.7083
2019-04-14T09:25:20.545Z,96.5935
2019-04-14T09:26:22.387Z,96.4501
2019-04-14T09:27:24.259Z,96.4765
2019-04-14T09:28:25.422Z,96.2782
2019-04-14T09:29:26.598Z,96.0155
2019-04-14T09:30:28.248Z,95.8716
2019-04-14T09:31:29.455Z,96.0840
2019-04-14T09:32:31.032Z,96.2927
2019-04-14T09:33:32.208Z,96.3452
2019-04-14T09:34:33.344Z,96.5323
2019-04-14T09:35:35.179Z,96.4206
2019-04-14T09:36:37.120Z,96.5310
2019-04-14T09:37:38.936Z,96.7004
2019-04-14T09:38:40.787Z,96.9656
2019-04-14T09:39:42.585Z,96.7072
2019-04-14T09:40:43.809Z,96.2322
2019-04-14T09:41:45.742Z,95.9683
2019-04-14T09:42:47.754Z,95.9410
2019-04-14T09:43:49.088Z,96.3030
2019-04-14T09:44:50.926Z,96.3378
2019-04-14T09:45:52.696Z,95.9529
2019-04-14T09:46:54.485Z,95.6385
2019-04-14T09:47:56.422Z,95.6090
2019-04-14T09:48:58.277Z,95.0273
2019-04-14T09:50:00.010Z,94.9072
2019-04-14T09:51:05.126Z,95.1138
2019-04-14T09:52:06.949Z,94.9985
2019-04-14T09:53:08.695Z,94.9389
2019-04-14T09:54:09.917Z,95.1769
2019-04-14T09:55:10.879Z,95.3043
2019-04-14T09:56:12.719Z,95.4760
2019-04-14T09:57:14.574Z,95.8336
2019-04-14T09:58:15.932Z,95.9732
2019-04-14T09:59:17.136Z,95.7234
2019-04-14T10:00:18.369Z,95.5051
2019-04-14T10:01:19.555Z,95.5680
2019-04-14T10:02:21.374Z,95.3908
2019-04-14T10:03:22.551Z,95.3452
2019-04-14T10:04:23.698Z,95.7223
2019-04-14T10:05:25.537Z,96.0500
2019-04-14T10:06:27.385Z,95.8220
2019-04-14T10:07:29.185Z,96.3006
2019-04-14T10:08:31.147Z,96.6946
2019-04-14T10:09:33.186Z,96.9125
2019-04-14T10:10:35.128Z,97.0932
2019-04-14T10:11:47.885Z,97.1778
2019-04-14T10:12:43.530Z,96.9249
2019-04-14T10:13:45.327Z,96.1443
2019-04-14T10:14:47.216Z,95.8912
2019-04-14T10:15:49.261Z,95.8148
2019-04-14T10:16:51.027Z,95.5547
2019-04-14T10:17:53.055Z,95.0593
2019-04-14T10:18:54.866Z,95.4576
2019-04-14T10:19:57.061Z,95.3090
2019-04-14T10:20:58.242Z,95.9539
2019-04-14T10:22:00.066Z,96.1343
2019-04-14T10:23:01.813Z,96.4263
2019-04-14T10:24:01.986Z,96.1815
2019-04-14T10:25:03.183Z,96.0244
2019-04-14T10:26:05.096Z,95.4790
2019-04-14T10:27:06.948Z,95.8821
2019-04-14T10:28:08.156Z,95.8291
2019-04-14T10:29:10.027Z,95.5963
2019-04-14T10:30:11.796Z,95.1179
2019-04-14T10:31:13.612Z,95.4467
2019-04-14T10:32:15.381Z,95.1876
2019-04-14T10:33:17.465Z,95.3033
2019-04-14T10:34:18.670Z,95.3266
2019-04-14T10:35:19.863Z,95.0266
2019-04-14T10:36:21.075Z,95.2515
2019-04-14T10:37:22.711Z,95.0753
2019-04-14T10:38:22.895Z,95.1454
2019-04-14T10:39:24.686Z,94.7658
2019-04-14T10:40:26.861Z,94.7316
2019-04-14T10:41:28.052Z,94.4677
2019-04-14T10:42:29.795Z,94.7206
2019-04-14T10:43:31.604Z,95.1503
2019-04-14T10:44:33.498Z,95.3432
2019-04-14T10:45:35.395Z,95.3289
2019-04-14T10:46:37.239Z,95.9118
2019-04-14T10:47:39.064Z,96.4108
2019-04-14T10:48:39.931Z,96.5776
2019-04-14T10:49:40.928Z,96.2442
2019-04-14T10:50:43.278Z,95.3969
2019-04-14T10:51:44.498Z,94.9557
2019-04-14T10:52:44.713Z,94.5098
2019-04-14T10:53:46.517Z,94.5751
2019-04-14T10:54:48.317Z,94.1320
2019-04-14T10:55:50.124Z,94.1269
2019-04-14T10:56:51.486Z,92.9868
2019-04-14T10:57:52.892Z,92.0969
2019-04-14T10:58:54.647Z,91.7246
2019-04-14T10:59:56.668Z,92.4680
2019-04-14T11:00:58.780Z,92.2751
2019-04-14T11:02:00.530Z,92.3995
2019-04-14T11:03:02.045Z,92.9592
2019-04-14T11:04:03.915Z,92.2493
2019-04-14T11:05:05.100Z,92.8534
2019-04-14T11:06:07.450Z,93.2376
2019-04-14T11:07:09.371Z,92.7899
2019-04-14T11:08:10.573Z,93.4856
2019-04-14T11:09:12.185Z,93.1699
2019-04-14T11:10:13.493Z,94.3247
2019-04-14T11:11:14.889Z,95.7727
2019-04-14T11:12:16.068Z,96.4874
2019-04-14T11:13:17.688Z,95.9644
2019-04-14T11:14:18.886Z,95.9166
2019-04-14T11:15:20.070Z,96.3456
2019-04-14T11:16:21.726Z,96.4626
2019-04-14T11:17:23.605Z,96.4834
2019-04-14T11:18:25.557Z,96.3890
2019-04-14T11:19:27.469Z,95.6947
2019-04-14T11:20:29.300Z,95.4957
2019-04-14T11:21:41.956Z,94.9342
2019-04-14T11:22:37.130Z,94.5186
2019-04-14T11:23:39.567Z,95.0617
2019-04-14T11:24:40.790Z,94.7438
2019-04-14T11:25:41.655Z,93.9313
2019-04-14T11:26:43.585Z,93.5804
2019-04-14T11:27:45.526Z,93.3468
2019-04-14T11:28:46.746Z,93.5744
2019-04-14T11:29:49.929Z,93.5547
2019-04-14T11:30:55.218Z,93.7939
2019-04-14T11:31:56.401Z,93.8504
2019-04-14T11:32:58.252Z,92.8173
2019-04-14T11:33:59.432Z,91.2964
2019-04-14T11:35:00.622Z,91.1882
2019-04-14T11:36:01.818Z,90.5761
2019-04-14T11:37:03.061Z,90.1635
2019-04-14T11:38:04.219Z,90.2251
2019-04-14T11:39:05.407Z,91.0269
2019-04-14T11:40:06.729Z,90.8787
2019-04-14T11:41:07.970Z,92.0628
2019-04-14T11:42:09.139Z,91.6984
2019-04-14T11:43:10.367Z,91.7255
2019-04-14T11:44:11.591Z,90.9663
2019-04-14T11:45:13.295Z,91.3471
2019-04-14T11:46:15.049Z,92.4868
2019-04-14T11:47:17.073Z,93.5678
2019-04-14T11:48:19.185Z,93.9653
2019-04-14T11:49:20.406Z,93.1066
2019-04-14T11:50:22.221Z,92.2962
2019-04-14T11:51:24.057Z,92.3700
2019-04-14T11:52:25.298Z,92.0243
2019-04-14T11:53:26.407Z,91.8597
2019-04-14T11:54:28.318Z,91.8914
2019-04-14T11:55:30.179Z,91.9284
2019-04-14T11:56:32.092Z,91.0989
2019-04-14T11:57:34.068Z,89.3718
2019-04-14T11:58:35.673Z,89.9061
2019-04-14T11:59:37.378Z,90.5499
2019-04-14T12:00:39.268Z,90.8324
2019-04-14T12:01:41.080Z,92.1176
2019-04-14T12:02:42.304Z,91.1025
2019-04-14T12:03:43.481Z,91.4860
2019-04-14T12:04:45.133Z,90.8879
2019-04-14T12:05:46.873Z,91.6681
2019-04-14T12:06:48.695Z,92.8047
2019-04-14T12:07:49.882Z,92.7594
2019-04-14T12:08:51.133Z,91.6247
2019-04-14T12:09:52.822Z,92.6779
2019-04-14T12:10:54.003Z,92.0773
2019-04-14T12:11:55.864Z,92.9027
2019-04-14T12:12:57.057Z,93.5227
2019-04-14T12:13:58.814Z,93.7342
2019-04-14T12:15:00.678Z,94.4011
2019-04-14T12:16:02.694Z,94.7207
2019-04-14T12:17:04.625Z,95.0359
2019-04-14T12:18:06.385Z,95.2464
2019-04-14T12:19:08.228Z,94.5905
2019-04-14T12:20:10.109Z,94.5971
2019-04-14T12:21:11.402Z,94.8509
2019-04-14T12:22:11.591Z,95.4274
2019-04-14T12:23:15.916Z,95.3755
2019-04-14T12:24:17.127Z,95.4873
2019-04-14T12:25:18.832Z,96.0101
2019-04-14T12:26:20.064Z,95.9847
2019-04-14T12:27:21.974Z,95.5722
2019-04-14T12:28:24.050Z,95.6885
2019-04-14T12:29:26.097Z,95.7122
2019-04-14T12:30:29.142Z,96.0866
2019-04-14T12:31:31.056Z,95.2127
2019-04-14T12:32:32.739Z,95.4123
2019-04-14T12:33:34.584Z,95.4360
2019-04-14T12:34:36.499Z,95.0087
2019-04-14T12:35:38.457Z,95.2630
2019-04-14T12:36:39.647Z,94.3433
2019-04-14T12:37:41.759Z,93.6499
2019-04-14T12:38:43.696Z,94.1376
2019-04-14T12:39:44.887Z,94.3695
2019-04-14T12:40:47.334Z,93.5939
2019-04-14T12:41:48.591Z,92.2351
2019-04-14T12:42:50.294Z,91.5465
2019-04-14T12:43:51.491Z,91.7038
2019-04-14T12:44:52.766Z,90.9059
2019-04-14T12:45:53.651Z,91.2172
2019-04-14T12:46:55.414Z,91.3725
2019-04-14T12:47:57.263Z,91.3175
2019-04-14T12:48:58.972Z,91.0634